<?xml version="1.0" encoding="UTF-8" standalone="no" ?>
<gpx xmlns="http://www.topografix.com/GPX/1/1" xmlns:xsi="http://www.w3.org/2001/XMLSchema-instance" xsi:schemaLocation="http://www.topografix.com/GPX/1/1 http://www.topografix.com/GPX/1/1/gpx.xsd" version="1.1" creator="VisuGPX - https://www.visugpx.com">
  <metadata>
    <name>balade du 19.02.2015 sans moi</name>
    <desc><![CDATA[Il devait y avoir les Angonnet et Paulette]]></desc>
  </metadata>
  <trk>
    <name><![CDATA[19 févr. 2015 13:48:52]]></name>
    <cmt><![CDATA[19 févr. 2015 13:48:52]]></cmt>
    <trkseg>
      <trkpt lat="47.47101" lon="6.68549">
        <ele>323</ele>
        <time>2015-02-19T12:48:52Z</time>
      </trkpt>
      <trkpt lat="47.47085" lon="6.6854">
        <ele>344</ele>
        <time>2015-02-19T12:49:02Z</time>
      </trkpt>
      <trkpt lat="47.4709" lon="6.68538">
        <ele>326</ele>
        <time>2015-02-19T12:49:19Z</time>
      </trkpt>
      <trkpt lat="47.47089" lon="6.68544">
        <ele>333</ele>
        <time>2015-02-19T12:53:18Z</time>
      </trkpt>
      <trkpt lat="47.47103" lon="6.68573">
        <ele>334</ele>
        <time>2015-02-19T12:53:45Z</time>
      </trkpt>
      <trkpt lat="47.47108" lon="6.68573">
        <ele>334</ele>
        <time>2015-02-19T12:53:51Z</time>
      </trkpt>
      <trkpt lat="47.47127" lon="6.6856">
        <ele>336</ele>
        <time>2015-02-19T12:54:15Z</time>
      </trkpt>
      <trkpt lat="47.47138" lon="6.6854">
        <ele>338</ele>
        <time>2015-02-19T12:54:38Z</time>
      </trkpt>
      <trkpt lat="47.47139" lon="6.68495">
        <ele>340</ele>
        <time>2015-02-19T12:55:09Z</time>
      </trkpt>
      <trkpt lat="47.47132" lon="6.68452">
        <ele>343</ele>
        <time>2015-02-19T12:55:43Z</time>
      </trkpt>
      <trkpt lat="47.47133" lon="6.68445">
        <ele>344</ele>
        <time>2015-02-19T12:55:46Z</time>
      </trkpt>
      <trkpt lat="47.47132" lon="6.684">
        <ele>346</ele>
        <time>2015-02-19T12:56:17Z</time>
      </trkpt>
      <trkpt lat="47.47126" lon="6.68359">
        <ele>349</ele>
        <time>2015-02-19T12:56:50Z</time>
      </trkpt>
      <trkpt lat="47.47121" lon="6.68309">
        <ele>352</ele>
        <time>2015-02-19T12:57:22Z</time>
      </trkpt>
      <trkpt lat="47.47118" lon="6.68264">
        <ele>354</ele>
        <time>2015-02-19T12:57:54Z</time>
      </trkpt>
      <trkpt lat="47.47116" lon="6.68212">
        <ele>355</ele>
        <time>2015-02-19T12:58:28Z</time>
      </trkpt>
      <trkpt lat="47.47117" lon="6.6816">
        <ele>356</ele>
        <time>2015-02-19T12:59:03Z</time>
      </trkpt>
      <trkpt lat="47.47121" lon="6.68138">
        <ele>356</ele>
        <time>2015-02-19T12:59:19Z</time>
      </trkpt>
      <trkpt lat="47.47109" lon="6.68089">
        <ele>357</ele>
        <time>2015-02-19T12:59:52Z</time>
      </trkpt>
      <trkpt lat="47.471" lon="6.68046">
        <ele>358</ele>
        <time>2015-02-19T13:00:22Z</time>
      </trkpt>
      <trkpt lat="47.47097" lon="6.68005">
        <ele>359</ele>
        <time>2015-02-19T13:00:52Z</time>
      </trkpt>
      <trkpt lat="47.4709" lon="6.67955">
        <ele>358</ele>
        <time>2015-02-19T13:01:27Z</time>
      </trkpt>
      <trkpt lat="47.47083" lon="6.6792">
        <ele>358</ele>
        <time>2015-02-19T13:01:56Z</time>
      </trkpt>
      <trkpt lat="47.47085" lon="6.67877">
        <ele>357</ele>
        <time>2015-02-19T13:02:27Z</time>
      </trkpt>
      <trkpt lat="47.47075" lon="6.67828">
        <ele>357</ele>
        <time>2015-02-19T13:02:58Z</time>
      </trkpt>
      <trkpt lat="47.47068" lon="6.67786">
        <ele>356</ele>
        <time>2015-02-19T13:03:32Z</time>
      </trkpt>
      <trkpt lat="47.47066" lon="6.67779">
        <ele>356</ele>
        <time>2015-02-19T13:03:37Z</time>
      </trkpt>
      <trkpt lat="47.47059" lon="6.67737">
        <ele>354</ele>
        <time>2015-02-19T13:04:11Z</time>
      </trkpt>
      <trkpt lat="47.47054" lon="6.67725">
        <ele>354</ele>
        <time>2015-02-19T13:04:22Z</time>
      </trkpt>
      <trkpt lat="47.47054" lon="6.67717">
        <ele>353</ele>
        <time>2015-02-19T13:04:28Z</time>
      </trkpt>
      <trkpt lat="47.47044" lon="6.67684">
        <ele>353</ele>
        <time>2015-02-19T13:04:58Z</time>
      </trkpt>
      <trkpt lat="47.4704" lon="6.6768">
        <ele>352</ele>
        <time>2015-02-19T13:05:02Z</time>
      </trkpt>
      <trkpt lat="47.47034" lon="6.6768">
        <ele>353</ele>
        <time>2015-02-19T13:05:07Z</time>
      </trkpt>
      <trkpt lat="47.47" lon="6.67687">
        <ele>362</ele>
        <time>2015-02-19T13:05:41Z</time>
      </trkpt>
      <trkpt lat="47.46985" lon="6.67693">
        <ele>367</ele>
        <time>2015-02-19T13:05:58Z</time>
      </trkpt>
      <trkpt lat="47.46968" lon="6.67718">
        <ele>373</ele>
        <time>2015-02-19T13:06:26Z</time>
      </trkpt>
      <trkpt lat="47.46963" lon="6.67735">
        <ele>374</ele>
        <time>2015-02-19T13:06:32Z</time>
      </trkpt>
      <trkpt lat="47.46956" lon="6.67745">
        <ele>376</ele>
        <time>2015-02-19T13:06:42Z</time>
      </trkpt>
      <trkpt lat="47.46955" lon="6.67765">
        <ele>380</ele>
        <time>2015-02-19T13:06:57Z</time>
      </trkpt>
      <trkpt lat="47.46956" lon="6.67773">
        <ele>381</ele>
        <time>2015-02-19T13:07:04Z</time>
      </trkpt>
      <trkpt lat="47.46954" lon="6.67787">
        <ele>383</ele>
        <time>2015-02-19T13:07:10Z</time>
      </trkpt>
      <trkpt lat="47.46941" lon="6.67823">
        <ele>387</ele>
        <time>2015-02-19T13:07:42Z</time>
      </trkpt>
      <trkpt lat="47.4693" lon="6.67863">
        <ele>390</ele>
        <time>2015-02-19T13:08:09Z</time>
      </trkpt>
      <trkpt lat="47.46927" lon="6.67867">
        <ele>391</ele>
        <time>2015-02-19T13:08:12Z</time>
      </trkpt>
      <trkpt lat="47.46921" lon="6.67879">
        <ele>392</ele>
        <time>2015-02-19T13:08:21Z</time>
      </trkpt>
      <trkpt lat="47.46911" lon="6.67904">
        <ele>392</ele>
        <time>2015-02-19T13:08:40Z</time>
      </trkpt>
      <trkpt lat="47.46901" lon="6.67944">
        <ele>390</ele>
        <time>2015-02-19T13:09:11Z</time>
      </trkpt>
      <trkpt lat="47.46885" lon="6.67991">
        <ele>386</ele>
        <time>2015-02-19T13:09:43Z</time>
      </trkpt>
      <trkpt lat="47.46872" lon="6.68033">
        <ele>380</ele>
        <time>2015-02-19T13:10:15Z</time>
      </trkpt>
      <trkpt lat="47.46869" lon="6.68039">
        <ele>379</ele>
        <time>2015-02-19T13:10:18Z</time>
      </trkpt>
      <trkpt lat="47.46839" lon="6.68065">
        <ele>377</ele>
        <time>2015-02-19T13:10:48Z</time>
      </trkpt>
      <trkpt lat="47.46834" lon="6.68067">
        <ele>376</ele>
        <time>2015-02-19T13:10:54Z</time>
      </trkpt>
      <trkpt lat="47.46832" lon="6.6807">
        <ele>376</ele>
        <time>2015-02-19T13:11:17Z</time>
      </trkpt>
      <trkpt lat="47.46833" lon="6.68074">
        <ele>375</ele>
        <time>2015-02-19T13:11:34Z</time>
      </trkpt>
      <trkpt lat="47.46827" lon="6.68072">
        <ele>373</ele>
        <time>2015-02-19T13:11:55Z</time>
      </trkpt>
      <trkpt lat="47.46814" lon="6.6805">
        <ele>371</ele>
        <time>2015-02-19T13:12:13Z</time>
      </trkpt>
      <trkpt lat="47.46812" lon="6.68044">
        <ele>370</ele>
        <time>2015-02-19T13:12:19Z</time>
      </trkpt>
      <trkpt lat="47.46792" lon="6.6801">
        <ele>370</ele>
        <time>2015-02-19T13:12:49Z</time>
      </trkpt>
      <trkpt lat="47.46785" lon="6.68">
        <ele>369</ele>
        <time>2015-02-19T13:12:59Z</time>
      </trkpt>
      <trkpt lat="47.46769" lon="6.67972">
        <ele>367</ele>
        <time>2015-02-19T13:13:31Z</time>
      </trkpt>
      <trkpt lat="47.46756" lon="6.67962">
        <ele>366</ele>
        <time>2015-02-19T13:13:47Z</time>
      </trkpt>
      <trkpt lat="47.46741" lon="6.67934">
        <ele>364</ele>
        <time>2015-02-19T13:14:12Z</time>
      </trkpt>
      <trkpt lat="47.46739" lon="6.67927">
        <ele>364</ele>
        <time>2015-02-19T13:14:16Z</time>
      </trkpt>
      <trkpt lat="47.46731" lon="6.67916">
        <ele>363</ele>
        <time>2015-02-19T13:14:25Z</time>
      </trkpt>
      <trkpt lat="47.4671" lon="6.67887">
        <ele>360</ele>
        <time>2015-02-19T13:14:56Z</time>
      </trkpt>
      <trkpt lat="47.4669" lon="6.67854">
        <ele>359</ele>
        <time>2015-02-19T13:15:26Z</time>
      </trkpt>
      <trkpt lat="47.46672" lon="6.6782">
        <ele>360</ele>
        <time>2015-02-19T13:15:55Z</time>
      </trkpt>
      <trkpt lat="47.46647" lon="6.67786">
        <ele>358</ele>
        <time>2015-02-19T13:16:30Z</time>
      </trkpt>
      <trkpt lat="47.46623" lon="6.6775">
        <ele>357</ele>
        <time>2015-02-19T13:17:02Z</time>
      </trkpt>
      <trkpt lat="47.46615" lon="6.67733">
        <ele>357</ele>
        <time>2015-02-19T13:17:18Z</time>
      </trkpt>
      <trkpt lat="47.4659" lon="6.67697">
        <ele>357</ele>
        <time>2015-02-19T13:17:51Z</time>
      </trkpt>
      <trkpt lat="47.46572" lon="6.67671">
        <ele>355</ele>
        <time>2015-02-19T13:18:19Z</time>
      </trkpt>
      <trkpt lat="47.46571" lon="6.67664">
        <ele>354</ele>
        <time>2015-02-19T13:18:24Z</time>
      </trkpt>
      <trkpt lat="47.46546" lon="6.67628">
        <ele>351</ele>
        <time>2015-02-19T13:18:56Z</time>
      </trkpt>
      <trkpt lat="47.46538" lon="6.67619">
        <ele>351</ele>
        <time>2015-02-19T13:19:07Z</time>
      </trkpt>
      <trkpt lat="47.46519" lon="6.6758">
        <ele>350</ele>
        <time>2015-02-19T13:19:41Z</time>
      </trkpt>
      <trkpt lat="47.46507" lon="6.67565">
        <ele>350</ele>
        <time>2015-02-19T13:19:56Z</time>
      </trkpt>
      <trkpt lat="47.46486" lon="6.67545">
        <ele>351</ele>
        <time>2015-02-19T13:20:27Z</time>
      </trkpt>
      <trkpt lat="47.46467" lon="6.67514">
        <ele>351</ele>
        <time>2015-02-19T13:21:00Z</time>
      </trkpt>
      <trkpt lat="47.4644" lon="6.67507">
        <ele>351</ele>
        <time>2015-02-19T13:21:21Z</time>
      </trkpt>
      <trkpt lat="47.46432" lon="6.67515">
        <ele>351</ele>
        <time>2015-02-19T13:21:31Z</time>
      </trkpt>
      <trkpt lat="47.46414" lon="6.67543">
        <ele>351</ele>
        <time>2015-02-19T13:22:02Z</time>
      </trkpt>
      <trkpt lat="47.46413" lon="6.67547">
        <ele>351</ele>
        <time>2015-02-19T13:22:14Z</time>
      </trkpt>
      <trkpt lat="47.46409" lon="6.67554">
        <ele>352</ele>
        <time>2015-02-19T13:22:19Z</time>
      </trkpt>
      <trkpt lat="47.46382" lon="6.67585">
        <ele>356</ele>
        <time>2015-02-19T13:22:52Z</time>
      </trkpt>
      <trkpt lat="47.46363" lon="6.67619">
        <ele>358</ele>
        <time>2015-02-19T13:23:23Z</time>
      </trkpt>
      <trkpt lat="47.4634" lon="6.67648">
        <ele>361</ele>
        <time>2015-02-19T13:23:55Z</time>
      </trkpt>
      <trkpt lat="47.4631" lon="6.67689">
        <ele>363</ele>
        <time>2015-02-19T13:24:28Z</time>
      </trkpt>
      <trkpt lat="47.4629" lon="6.67721">
        <ele>366</ele>
        <time>2015-02-19T13:25:00Z</time>
      </trkpt>
      <trkpt lat="47.46262" lon="6.67751">
        <ele>367</ele>
        <time>2015-02-19T13:25:31Z</time>
      </trkpt>
      <trkpt lat="47.46243" lon="6.67786">
        <ele>369</ele>
        <time>2015-02-19T13:26:03Z</time>
      </trkpt>
      <trkpt lat="47.46233" lon="6.67802">
        <ele>370</ele>
        <time>2015-02-19T13:26:19Z</time>
      </trkpt>
      <trkpt lat="47.46214" lon="6.67828">
        <ele>369</ele>
        <time>2015-02-19T13:26:52Z</time>
      </trkpt>
      <trkpt lat="47.46205" lon="6.67886">
        <ele>365</ele>
        <time>2015-02-19T13:27:26Z</time>
      </trkpt>
      <trkpt lat="47.462" lon="6.67931">
        <ele>362</ele>
        <time>2015-02-19T13:27:59Z</time>
      </trkpt>
      <trkpt lat="47.46203" lon="6.67971">
        <ele>358</ele>
        <time>2015-02-19T13:28:30Z</time>
      </trkpt>
      <trkpt lat="47.46222" lon="6.68015">
        <ele>355</ele>
        <time>2015-02-19T13:29:05Z</time>
      </trkpt>
      <trkpt lat="47.4625" lon="6.68042">
        <ele>353</ele>
        <time>2015-02-19T13:29:38Z</time>
      </trkpt>
      <trkpt lat="47.46263" lon="6.68048">
        <ele>351</ele>
        <time>2015-02-19T13:29:53Z</time>
      </trkpt>
      <trkpt lat="47.46265" lon="6.68053">
        <ele>350</ele>
        <time>2015-02-19T13:30:02Z</time>
      </trkpt>
      <trkpt lat="47.4626" lon="6.68056">
        <ele>350</ele>
        <time>2015-02-19T13:30:08Z</time>
      </trkpt>
      <trkpt lat="47.46227" lon="6.68074">
        <ele>347</ele>
        <time>2015-02-19T13:30:38Z</time>
      </trkpt>
      <trkpt lat="47.46196" lon="6.68091">
        <ele>346</ele>
        <time>2015-02-19T13:31:12Z</time>
      </trkpt>
      <trkpt lat="47.46172" lon="6.68099">
        <ele>345</ele>
        <time>2015-02-19T13:31:44Z</time>
      </trkpt>
      <trkpt lat="47.46147" lon="6.68098">
        <ele>345</ele>
        <time>2015-02-19T13:32:14Z</time>
      </trkpt>
      <trkpt lat="47.46117" lon="6.68098">
        <ele>345</ele>
        <time>2015-02-19T13:32:46Z</time>
      </trkpt>
      <trkpt lat="47.46087" lon="6.68091">
        <ele>344</ele>
        <time>2015-02-19T13:33:18Z</time>
      </trkpt>
      <trkpt lat="47.46056" lon="6.68063">
        <ele>342</ele>
        <time>2015-02-19T13:33:49Z</time>
      </trkpt>
      <trkpt lat="47.46044" lon="6.68048">
        <ele>341</ele>
        <time>2015-02-19T13:34:04Z</time>
      </trkpt>
      <trkpt lat="47.4603" lon="6.68011">
        <ele>338</ele>
        <time>2015-02-19T13:34:35Z</time>
      </trkpt>
      <trkpt lat="47.46017" lon="6.67972">
        <ele>333</ele>
        <time>2015-02-19T13:35:10Z</time>
      </trkpt>
      <trkpt lat="47.45994" lon="6.67943">
        <ele>329</ele>
        <time>2015-02-19T13:35:47Z</time>
      </trkpt>
      <trkpt lat="47.45991" lon="6.67939">
        <ele>328</ele>
        <time>2015-02-19T13:35:52Z</time>
      </trkpt>
      <trkpt lat="47.45972" lon="6.67916">
        <ele>328</ele>
        <time>2015-02-19T13:36:22Z</time>
      </trkpt>
      <trkpt lat="47.4595" lon="6.67892">
        <ele>328</ele>
        <time>2015-02-19T13:36:56Z</time>
      </trkpt>
      <trkpt lat="47.45935" lon="6.67871">
        <ele>329</ele>
        <time>2015-02-19T13:37:27Z</time>
      </trkpt>
      <trkpt lat="47.45913" lon="6.67842">
        <ele>328</ele>
        <time>2015-02-19T13:38:00Z</time>
      </trkpt>
      <trkpt lat="47.45897" lon="6.67823">
        <ele>328</ele>
        <time>2015-02-19T13:38:24Z</time>
      </trkpt>
      <trkpt lat="47.45881" lon="6.67796">
        <ele>328</ele>
        <time>2015-02-19T13:38:54Z</time>
      </trkpt>
      <trkpt lat="47.45877" lon="6.67791">
        <ele>328</ele>
        <time>2015-02-19T13:39:01Z</time>
      </trkpt>
      <trkpt lat="47.45856" lon="6.6775">
        <ele>329</ele>
        <time>2015-02-19T13:39:36Z</time>
      </trkpt>
      <trkpt lat="47.45849" lon="6.67739">
        <ele>329</ele>
        <time>2015-02-19T13:39:48Z</time>
      </trkpt>
      <trkpt lat="47.45848" lon="6.67732">
        <ele>329</ele>
        <time>2015-02-19T13:39:53Z</time>
      </trkpt>
      <trkpt lat="47.45845" lon="6.67727">
        <ele>329</ele>
        <time>2015-02-19T13:39:58Z</time>
      </trkpt>
      <trkpt lat="47.45832" lon="6.67719">
        <ele>330</ele>
        <time>2015-02-19T13:40:16Z</time>
      </trkpt>
      <trkpt lat="47.45827" lon="6.67718">
        <ele>330</ele>
        <time>2015-02-19T13:40:25Z</time>
      </trkpt>
      <trkpt lat="47.45824" lon="6.67712">
        <ele>331</ele>
        <time>2015-02-19T13:40:31Z</time>
      </trkpt>
      <trkpt lat="47.45809" lon="6.67674">
        <ele>333</ele>
        <time>2015-02-19T13:41:04Z</time>
      </trkpt>
      <trkpt lat="47.45789" lon="6.67642">
        <ele>336</ele>
        <time>2015-02-19T13:41:38Z</time>
      </trkpt>
      <trkpt lat="47.45764" lon="6.67621">
        <ele>339</ele>
        <time>2015-02-19T13:42:09Z</time>
      </trkpt>
      <trkpt lat="47.45739" lon="6.676">
        <ele>342</ele>
        <time>2015-02-19T13:42:42Z</time>
      </trkpt>
      <trkpt lat="47.45723" lon="6.67562">
        <ele>346</ele>
        <time>2015-02-19T13:43:17Z</time>
      </trkpt>
      <trkpt lat="47.45713" lon="6.67507">
        <ele>351</ele>
        <time>2015-02-19T13:43:53Z</time>
      </trkpt>
      <trkpt lat="47.45703" lon="6.67466">
        <ele>354</ele>
        <time>2015-02-19T13:44:25Z</time>
      </trkpt>
      <trkpt lat="47.45691" lon="6.67423">
        <ele>353</ele>
        <time>2015-02-19T13:45:16Z</time>
      </trkpt>
      <trkpt lat="47.45687" lon="6.67402">
        <ele>354</ele>
        <time>2015-02-19T13:45:42Z</time>
      </trkpt>
      <trkpt lat="47.45678" lon="6.67355">
        <ele>353</ele>
        <time>2015-02-19T13:46:15Z</time>
      </trkpt>
      <trkpt lat="47.45664" lon="6.67305">
        <ele>352</ele>
        <time>2015-02-19T13:46:50Z</time>
      </trkpt>
      <trkpt lat="47.45653" lon="6.67262">
        <ele>352</ele>
        <time>2015-02-19T13:47:21Z</time>
      </trkpt>
      <trkpt lat="47.45641" lon="6.67221">
        <ele>351</ele>
        <time>2015-02-19T13:47:52Z</time>
      </trkpt>
      <trkpt lat="47.45629" lon="6.67181">
        <ele>348</ele>
        <time>2015-02-19T13:48:22Z</time>
      </trkpt>
      <trkpt lat="47.45619" lon="6.67144">
        <ele>347</ele>
        <time>2015-02-19T13:48:53Z</time>
      </trkpt>
      <trkpt lat="47.45607" lon="6.67095">
        <ele>346</ele>
        <time>2015-02-19T13:49:27Z</time>
      </trkpt>
      <trkpt lat="47.4559" lon="6.67049">
        <ele>344</ele>
        <time>2015-02-19T13:50:01Z</time>
      </trkpt>
      <trkpt lat="47.4558" lon="6.67">
        <ele>342</ele>
        <time>2015-02-19T13:50:33Z</time>
      </trkpt>
      <trkpt lat="47.45569" lon="6.66949">
        <ele>341</ele>
        <time>2015-02-19T13:51:06Z</time>
      </trkpt>
      <trkpt lat="47.45567" lon="6.66941">
        <ele>341</ele>
        <time>2015-02-19T13:51:12Z</time>
      </trkpt>
      <trkpt lat="47.45563" lon="6.66927">
        <ele>341</ele>
        <time>2015-02-19T13:51:22Z</time>
      </trkpt>
      <trkpt lat="47.45558" lon="6.66898">
        <ele>342</ele>
        <time>2015-02-19T13:51:43Z</time>
      </trkpt>
      <trkpt lat="47.45553" lon="6.66841">
        <ele>342</ele>
        <time>2015-02-19T13:52:22Z</time>
      </trkpt>
      <trkpt lat="47.45548" lon="6.66791">
        <ele>342</ele>
        <time>2015-02-19T13:52:54Z</time>
      </trkpt>
      <trkpt lat="47.45552" lon="6.66746">
        <ele>342</ele>
        <time>2015-02-19T13:53:27Z</time>
      </trkpt>
      <trkpt lat="47.45553" lon="6.66693">
        <ele>343</ele>
        <time>2015-02-19T13:53:59Z</time>
      </trkpt>
      <trkpt lat="47.45551" lon="6.66649">
        <ele>342</ele>
        <time>2015-02-19T13:54:32Z</time>
      </trkpt>
      <trkpt lat="47.45547" lon="6.66622">
        <ele>343</ele>
        <time>2015-02-19T13:54:47Z</time>
      </trkpt>
      <trkpt lat="47.45549" lon="6.66616">
        <ele>343</ele>
        <time>2015-02-19T13:54:51Z</time>
      </trkpt>
      <trkpt lat="47.45547" lon="6.66585">
        <ele>342</ele>
        <time>2015-02-19T13:55:09Z</time>
      </trkpt>
      <trkpt lat="47.45544" lon="6.66571">
        <ele>341</ele>
        <time>2015-02-19T13:55:19Z</time>
      </trkpt>
      <trkpt lat="47.45544" lon="6.66564">
        <ele>341</ele>
        <time>2015-02-19T13:55:24Z</time>
      </trkpt>
      <trkpt lat="47.45542" lon="6.66557">
        <ele>341</ele>
        <time>2015-02-19T13:55:28Z</time>
      </trkpt>
      <trkpt lat="47.45539" lon="6.66552">
        <ele>341</ele>
        <time>2015-02-19T13:55:32Z</time>
      </trkpt>
      <trkpt lat="47.45526" lon="6.66504">
        <ele>339</ele>
        <time>2015-02-19T13:56:03Z</time>
      </trkpt>
      <trkpt lat="47.45526" lon="6.6646">
        <ele>338</ele>
        <time>2015-02-19T13:56:34Z</time>
      </trkpt>
      <trkpt lat="47.45527" lon="6.66409">
        <ele>336</ele>
        <time>2015-02-19T13:57:07Z</time>
      </trkpt>
      <trkpt lat="47.45527" lon="6.66357">
        <ele>334</ele>
        <time>2015-02-19T13:57:38Z</time>
      </trkpt>
      <trkpt lat="47.4553" lon="6.66307">
        <ele>335</ele>
        <time>2015-02-19T13:58:12Z</time>
      </trkpt>
      <trkpt lat="47.45532" lon="6.66257">
        <ele>336</ele>
        <time>2015-02-19T13:58:45Z</time>
      </trkpt>
      <trkpt lat="47.45529" lon="6.66213">
        <ele>335</ele>
        <time>2015-02-19T13:59:17Z</time>
      </trkpt>
      <trkpt lat="47.45527" lon="6.6619">
        <ele>335</ele>
        <time>2015-02-19T13:59:32Z</time>
      </trkpt>
      <trkpt lat="47.45537" lon="6.66156">
        <ele>334</ele>
        <time>2015-02-19T14:00:00Z</time>
      </trkpt>
      <trkpt lat="47.45553" lon="6.66137">
        <ele>333</ele>
        <time>2015-02-19T14:00:22Z</time>
      </trkpt>
      <trkpt lat="47.45566" lon="6.66131">
        <ele>332</ele>
        <time>2015-02-19T14:00:42Z</time>
      </trkpt>
      <trkpt lat="47.45564" lon="6.66128">
        <ele>331</ele>
        <time>2015-02-19T14:01:04Z</time>
      </trkpt>
      <trkpt lat="47.45564" lon="6.66124">
        <ele>331</ele>
        <time>2015-02-19T14:01:15Z</time>
      </trkpt>
      <trkpt lat="47.45568" lon="6.66119">
        <ele>331</ele>
        <time>2015-02-19T14:01:23Z</time>
      </trkpt>
      <trkpt lat="47.45577" lon="6.66116">
        <ele>331</ele>
        <time>2015-02-19T14:01:34Z</time>
      </trkpt>
      <trkpt lat="47.45607" lon="6.66111">
        <ele>330</ele>
        <time>2015-02-19T14:02:05Z</time>
      </trkpt>
      <trkpt lat="47.45632" lon="6.66101">
        <ele>330</ele>
        <time>2015-02-19T14:02:28Z</time>
      </trkpt>
      <trkpt lat="47.45636" lon="6.66101">
        <ele>331</ele>
        <time>2015-02-19T14:02:38Z</time>
      </trkpt>
      <trkpt lat="47.45636" lon="6.66094">
        <ele>331</ele>
        <time>2015-02-19T14:02:46Z</time>
      </trkpt>
      <trkpt lat="47.45641" lon="6.66091">
        <ele>331</ele>
        <time>2015-02-19T14:02:49Z</time>
      </trkpt>
      <trkpt lat="47.45677" lon="6.66085">
        <ele>332</ele>
        <time>2015-02-19T14:03:23Z</time>
      </trkpt>
      <trkpt lat="47.45684" lon="6.66083">
        <ele>333</ele>
        <time>2015-02-19T14:03:28Z</time>
      </trkpt>
      <trkpt lat="47.45686" lon="6.66075">
        <ele>333</ele>
        <time>2015-02-19T14:03:32Z</time>
      </trkpt>
      <trkpt lat="47.45687" lon="6.66067">
        <ele>334</ele>
        <time>2015-02-19T14:03:38Z</time>
      </trkpt>
      <trkpt lat="47.45682" lon="6.66059">
        <ele>334</ele>
        <time>2015-02-19T14:03:40Z</time>
      </trkpt>
      <trkpt lat="47.45681" lon="6.66052">
        <ele>333</ele>
        <time>2015-02-19T14:03:47Z</time>
      </trkpt>
      <trkpt lat="47.45684" lon="6.66038">
        <ele>333</ele>
        <time>2015-02-19T14:04:00Z</time>
      </trkpt>
      <trkpt lat="47.45688" lon="6.66035">
        <ele>333</ele>
        <time>2015-02-19T14:04:07Z</time>
      </trkpt>
      <trkpt lat="47.45691" lon="6.66039">
        <ele>333</ele>
        <time>2015-02-19T14:04:14Z</time>
      </trkpt>
      <trkpt lat="47.45703" lon="6.6605">
        <ele>332</ele>
        <time>2015-02-19T14:04:28Z</time>
      </trkpt>
      <trkpt lat="47.45737" lon="6.66057">
        <ele>332</ele>
        <time>2015-02-19T14:05:00Z</time>
      </trkpt>
      <trkpt lat="47.45771" lon="6.66073">
        <ele>331</ele>
        <time>2015-02-19T14:05:33Z</time>
      </trkpt>
      <trkpt lat="47.45799" lon="6.66086">
        <ele>329</ele>
        <time>2015-02-19T14:06:02Z</time>
      </trkpt>
      <trkpt lat="47.45802" lon="6.6609">
        <ele>329</ele>
        <time>2015-02-19T14:06:10Z</time>
      </trkpt>
      <trkpt lat="47.45837" lon="6.66095">
        <ele>323</ele>
        <time>2015-02-19T14:06:42Z</time>
      </trkpt>
      <trkpt lat="47.45852" lon="6.66101">
        <ele>321</ele>
        <time>2015-02-19T14:06:54Z</time>
      </trkpt>
      <trkpt lat="47.4588" lon="6.66122">
        <ele>318</ele>
        <time>2015-02-19T14:07:26Z</time>
      </trkpt>
      <trkpt lat="47.45899" lon="6.66156">
        <ele>316</ele>
        <time>2015-02-19T14:07:58Z</time>
      </trkpt>
      <trkpt lat="47.45919" lon="6.6619">
        <ele>315</ele>
        <time>2015-02-19T14:08:29Z</time>
      </trkpt>
      <trkpt lat="47.45937" lon="6.66216">
        <ele>313</ele>
        <time>2015-02-19T14:08:49Z</time>
      </trkpt>
      <trkpt lat="47.45942" lon="6.66218">
        <ele>312</ele>
        <time>2015-02-19T14:08:54Z</time>
      </trkpt>
      <trkpt lat="47.45957" lon="6.66216">
        <ele>312</ele>
        <time>2015-02-19T14:09:08Z</time>
      </trkpt>
      <trkpt lat="47.45968" lon="6.66202">
        <ele>311</ele>
        <time>2015-02-19T14:09:26Z</time>
      </trkpt>
      <trkpt lat="47.45969" lon="6.66195">
        <ele>311</ele>
        <time>2015-02-19T14:09:31Z</time>
      </trkpt>
      <trkpt lat="47.45975" lon="6.66184">
        <ele>311</ele>
        <time>2015-02-19T14:09:43Z</time>
      </trkpt>
      <trkpt lat="47.45996" lon="6.66154">
        <ele>309</ele>
        <time>2015-02-19T14:10:15Z</time>
      </trkpt>
      <trkpt lat="47.46045" lon="6.66138">
        <ele>307</ele>
        <time>2015-02-19T14:10:49Z</time>
      </trkpt>
      <trkpt lat="47.46049" lon="6.66139">
        <ele>307</ele>
        <time>2015-02-19T14:10:55Z</time>
      </trkpt>
      <trkpt lat="47.46054" lon="6.6614">
        <ele>307</ele>
        <time>2015-02-19T14:11:01Z</time>
      </trkpt>
      <trkpt lat="47.46064" lon="6.66134">
        <ele>308</ele>
        <time>2015-02-19T14:11:12Z</time>
      </trkpt>
      <trkpt lat="47.4607" lon="6.66123">
        <ele>309</ele>
        <time>2015-02-19T14:11:28Z</time>
      </trkpt>
      <trkpt lat="47.46074" lon="6.66121">
        <ele>310</ele>
        <time>2015-02-19T14:11:32Z</time>
      </trkpt>
      <trkpt lat="47.46079" lon="6.66108">
        <ele>312</ele>
        <time>2015-02-19T14:11:47Z</time>
      </trkpt>
      <trkpt lat="47.46104" lon="6.66085">
        <ele>315</ele>
        <time>2015-02-19T14:12:20Z</time>
      </trkpt>
      <trkpt lat="47.46124" lon="6.66065">
        <ele>317</ele>
        <time>2015-02-19T14:12:46Z</time>
      </trkpt>
      <trkpt lat="47.46123" lon="6.66057">
        <ele>317</ele>
        <time>2015-02-19T14:12:53Z</time>
      </trkpt>
      <trkpt lat="47.46121" lon="6.66051">
        <ele>318</ele>
        <time>2015-02-19T14:12:58Z</time>
      </trkpt>
      <trkpt lat="47.46119" lon="6.66056">
        <ele>320</ele>
        <time>2015-02-19T14:13:13Z</time>
      </trkpt>
      <trkpt lat="47.4612" lon="6.6606">
        <ele>320</ele>
        <time>2015-02-19T14:13:31Z</time>
      </trkpt>
      <trkpt lat="47.46118" lon="6.66062">
        <ele>323</ele>
        <time>2015-02-19T14:14:08Z</time>
      </trkpt>
      <trkpt lat="47.46113" lon="6.66057">
        <ele>325</ele>
        <time>2015-02-19T14:14:36Z</time>
      </trkpt>
      <trkpt lat="47.46111" lon="6.66055">
        <ele>326</ele>
        <time>2015-02-19T14:14:43Z</time>
      </trkpt>
      <trkpt lat="47.46115" lon="6.66048">
        <ele>328</ele>
        <time>2015-02-19T14:14:59Z</time>
      </trkpt>
      <trkpt lat="47.46127" lon="6.66037">
        <ele>328</ele>
        <time>2015-02-19T14:15:08Z</time>
      </trkpt>
      <trkpt lat="47.46148" lon="6.65996">
        <ele>331</ele>
        <time>2015-02-19T14:15:44Z</time>
      </trkpt>
      <trkpt lat="47.46154" lon="6.65985">
        <ele>331</ele>
        <time>2015-02-19T14:15:54Z</time>
      </trkpt>
      <trkpt lat="47.46166" lon="6.65944">
        <ele>333</ele>
        <time>2015-02-19T14:16:27Z</time>
      </trkpt>
      <trkpt lat="47.4618" lon="6.65898">
        <ele>333</ele>
        <time>2015-02-19T14:17:01Z</time>
      </trkpt>
      <trkpt lat="47.46192" lon="6.65849">
        <ele>335</ele>
        <time>2015-02-19T14:17:33Z</time>
      </trkpt>
      <trkpt lat="47.46197" lon="6.65835">
        <ele>336</ele>
        <time>2015-02-19T14:17:43Z</time>
      </trkpt>
      <trkpt lat="47.46207" lon="6.65809">
        <ele>339</ele>
        <time>2015-02-19T14:18:06Z</time>
      </trkpt>
      <trkpt lat="47.46216" lon="6.65798">
        <ele>341</ele>
        <time>2015-02-19T14:18:23Z</time>
      </trkpt>
      <trkpt lat="47.46237" lon="6.65798">
        <ele>343</ele>
        <time>2015-02-19T14:18:44Z</time>
      </trkpt>
      <trkpt lat="47.46252" lon="6.658">
        <ele>343</ele>
        <time>2015-02-19T14:18:55Z</time>
      </trkpt>
      <trkpt lat="47.46256" lon="6.65802">
        <ele>343</ele>
        <time>2015-02-19T14:18:58Z</time>
      </trkpt>
      <trkpt lat="47.46286" lon="6.65812">
        <ele>339</ele>
        <time>2015-02-19T14:19:28Z</time>
      </trkpt>
      <trkpt lat="47.46291" lon="6.65813">
        <ele>338</ele>
        <time>2015-02-19T14:19:34Z</time>
      </trkpt>
      <trkpt lat="47.46296" lon="6.65816">
        <ele>339</ele>
        <time>2015-02-19T14:19:40Z</time>
      </trkpt>
      <trkpt lat="47.46316" lon="6.65829">
        <ele>340</ele>
        <time>2015-02-19T14:20:00Z</time>
      </trkpt>
      <trkpt lat="47.46321" lon="6.6583">
        <ele>340</ele>
        <time>2015-02-19T14:20:04Z</time>
      </trkpt>
      <trkpt lat="47.46349" lon="6.65843">
        <ele>339</ele>
        <time>2015-02-19T14:20:31Z</time>
      </trkpt>
      <trkpt lat="47.46387" lon="6.65854">
        <ele>339</ele>
        <time>2015-02-19T14:21:03Z</time>
      </trkpt>
      <trkpt lat="47.4642" lon="6.65871">
        <ele>340</ele>
        <time>2015-02-19T14:21:35Z</time>
      </trkpt>
      <trkpt lat="47.46429" lon="6.65875">
        <ele>340</ele>
        <time>2015-02-19T14:21:43Z</time>
      </trkpt>
      <trkpt lat="47.46443" lon="6.65882">
        <ele>341</ele>
        <time>2015-02-19T14:21:58Z</time>
      </trkpt>
      <trkpt lat="47.46452" lon="6.65887">
        <ele>341</ele>
        <time>2015-02-19T14:22:07Z</time>
      </trkpt>
      <trkpt lat="47.46485" lon="6.659">
        <ele>343</ele>
        <time>2015-02-19T14:22:40Z</time>
      </trkpt>
      <trkpt lat="47.46519" lon="6.65915">
        <ele>349</ele>
        <time>2015-02-19T14:23:17Z</time>
      </trkpt>
      <trkpt lat="47.46529" lon="6.65915">
        <ele>351</ele>
        <time>2015-02-19T14:23:30Z</time>
      </trkpt>
      <trkpt lat="47.46534" lon="6.65918">
        <ele>352</ele>
        <time>2015-02-19T14:23:36Z</time>
      </trkpt>
      <trkpt lat="47.46537" lon="6.65918">
        <ele>353</ele>
        <time>2015-02-19T14:23:45Z</time>
      </trkpt>
      <trkpt lat="47.46541" lon="6.65923">
        <ele>354</ele>
        <time>2015-02-19T14:23:58Z</time>
      </trkpt>
      <trkpt lat="47.4657" lon="6.65927">
        <ele>361</ele>
        <time>2015-02-19T14:24:32Z</time>
      </trkpt>
      <trkpt lat="47.46574" lon="6.6593">
        <ele>361</ele>
        <time>2015-02-19T14:24:38Z</time>
      </trkpt>
      <trkpt lat="47.46579" lon="6.65932">
        <ele>361</ele>
        <time>2015-02-19T14:24:43Z</time>
      </trkpt>
      <trkpt lat="47.46589" lon="6.65937">
        <ele>361</ele>
        <time>2015-02-19T14:24:54Z</time>
      </trkpt>
      <trkpt lat="47.46593" lon="6.65934">
        <ele>361</ele>
        <time>2015-02-19T14:25:01Z</time>
      </trkpt>
      <trkpt lat="47.46603" lon="6.65936">
        <ele>361</ele>
        <time>2015-02-19T14:25:13Z</time>
      </trkpt>
      <trkpt lat="47.46627" lon="6.65935">
        <ele>360</ele>
        <time>2015-02-19T14:25:46Z</time>
      </trkpt>
      <trkpt lat="47.46646" lon="6.65931">
        <ele>359</ele>
        <time>2015-02-19T14:26:12Z</time>
      </trkpt>
      <trkpt lat="47.46656" lon="6.65927">
        <ele>360</ele>
        <time>2015-02-19T14:26:27Z</time>
      </trkpt>
      <trkpt lat="47.46678" lon="6.65932">
        <ele>363</ele>
        <time>2015-02-19T14:27:02Z</time>
      </trkpt>
      <trkpt lat="47.46706" lon="6.6593">
        <ele>366</ele>
        <time>2015-02-19T14:27:35Z</time>
      </trkpt>
      <trkpt lat="47.46733" lon="6.65936">
        <ele>373</ele>
        <time>2015-02-19T14:28:09Z</time>
      </trkpt>
      <trkpt lat="47.4675" lon="6.65952">
        <ele>376</ele>
        <time>2015-02-19T14:28:32Z</time>
      </trkpt>
      <trkpt lat="47.46779" lon="6.6596">
        <ele>377</ele>
        <time>2015-02-19T14:29:07Z</time>
      </trkpt>
      <trkpt lat="47.46786" lon="6.65961">
        <ele>379</ele>
        <time>2015-02-19T14:29:32Z</time>
      </trkpt>
      <trkpt lat="47.46786" lon="6.65962">
        <ele>379</ele>
        <time>2015-02-19T14:29:47Z</time>
      </trkpt>
      <trkpt lat="47.4678" lon="6.65961">
        <ele>380</ele>
        <time>2015-02-19T14:29:59Z</time>
      </trkpt>
      <trkpt lat="47.46775" lon="6.6596">
        <ele>380</ele>
        <time>2015-02-19T14:30:06Z</time>
      </trkpt>
      <trkpt lat="47.46773" lon="6.65955">
        <ele>382</ele>
        <time>2015-02-19T14:30:48Z</time>
      </trkpt>
      <trkpt lat="47.46772" lon="6.65945">
        <ele>382</ele>
        <time>2015-02-19T14:31:18Z</time>
      </trkpt>
      <trkpt lat="47.46775" lon="6.65939">
        <ele>382</ele>
        <time>2015-02-19T14:31:23Z</time>
      </trkpt>
      <trkpt lat="47.46774" lon="6.65942">
        <ele>383</ele>
        <time>2015-02-19T14:32:00Z</time>
      </trkpt>
      <trkpt lat="47.46763" lon="6.65943">
        <ele>383</ele>
        <time>2015-02-19T14:32:35Z</time>
      </trkpt>
      <trkpt lat="47.46761" lon="6.65946">
        <ele>384</ele>
        <time>2015-02-19T14:32:41Z</time>
      </trkpt>
      <trkpt lat="47.46765" lon="6.65953">
        <ele>384</ele>
        <time>2015-02-19T14:32:51Z</time>
      </trkpt>
      <trkpt lat="47.46768" lon="6.6596">
        <ele>385</ele>
        <time>2015-02-19T14:33:02Z</time>
      </trkpt>
      <trkpt lat="47.46792" lon="6.65974">
        <ele>386</ele>
        <time>2015-02-19T14:33:29Z</time>
      </trkpt>
      <trkpt lat="47.46825" lon="6.65982">
        <ele>389</ele>
        <time>2015-02-19T14:34:06Z</time>
      </trkpt>
      <trkpt lat="47.46834" lon="6.65986">
        <ele>390</ele>
        <time>2015-02-19T14:34:14Z</time>
      </trkpt>
      <trkpt lat="47.46851" lon="6.66001">
        <ele>391</ele>
        <time>2015-02-19T14:34:33Z</time>
      </trkpt>
      <trkpt lat="47.46885" lon="6.66002">
        <ele>395</ele>
        <time>2015-02-19T14:35:06Z</time>
      </trkpt>
      <trkpt lat="47.46889" lon="6.66005">
        <ele>396</ele>
        <time>2015-02-19T14:35:13Z</time>
      </trkpt>
      <trkpt lat="47.46916" lon="6.6601">
        <ele>402</ele>
        <time>2015-02-19T14:35:51Z</time>
      </trkpt>
      <trkpt lat="47.46941" lon="6.66014">
        <ele>408</ele>
        <time>2015-02-19T14:36:22Z</time>
      </trkpt>
      <trkpt lat="47.46964" lon="6.66014">
        <ele>411</ele>
        <time>2015-02-19T14:36:52Z</time>
      </trkpt>
      <trkpt lat="47.46979" lon="6.66013">
        <ele>412</ele>
        <time>2015-02-19T14:37:07Z</time>
      </trkpt>
      <trkpt lat="47.47004" lon="6.66016">
        <ele>415</ele>
        <time>2015-02-19T14:37:38Z</time>
      </trkpt>
      <trkpt lat="47.4701" lon="6.66016">
        <ele>416</ele>
        <time>2015-02-19T14:37:44Z</time>
      </trkpt>
      <trkpt lat="47.47014" lon="6.66019">
        <ele>417</ele>
        <time>2015-02-19T14:37:52Z</time>
      </trkpt>
      <trkpt lat="47.47018" lon="6.6602">
        <ele>417</ele>
        <time>2015-02-19T14:37:58Z</time>
      </trkpt>
      <trkpt lat="47.47035" lon="6.66032">
        <ele>417</ele>
        <time>2015-02-19T14:38:26Z</time>
      </trkpt>
      <trkpt lat="47.47034" lon="6.66039">
        <ele>417</ele>
        <time>2015-02-19T14:38:59Z</time>
      </trkpt>
      <trkpt lat="47.47044" lon="6.66042">
        <ele>417</ele>
        <time>2015-02-19T14:39:47Z</time>
      </trkpt>
      <trkpt lat="47.47072" lon="6.66051">
        <ele>416</ele>
        <time>2015-02-19T14:40:18Z</time>
      </trkpt>
      <trkpt lat="47.47101" lon="6.66055">
        <ele>416</ele>
        <time>2015-02-19T14:40:51Z</time>
      </trkpt>
      <trkpt lat="47.47127" lon="6.66072">
        <ele>417</ele>
        <time>2015-02-19T14:41:28Z</time>
      </trkpt>
      <trkpt lat="47.47138" lon="6.66082">
        <ele>417</ele>
        <time>2015-02-19T14:42:20Z</time>
      </trkpt>
      <trkpt lat="47.47147" lon="6.66082">
        <ele>417</ele>
        <time>2015-02-19T14:42:52Z</time>
      </trkpt>
      <trkpt lat="47.47175" lon="6.66083">
        <ele>415</ele>
        <time>2015-02-19T14:43:30Z</time>
      </trkpt>
      <trkpt lat="47.47185" lon="6.66084">
        <ele>415</ele>
        <time>2015-02-19T14:43:38Z</time>
      </trkpt>
      <trkpt lat="47.47211" lon="6.66099">
        <ele>414</ele>
        <time>2015-02-19T14:44:07Z</time>
      </trkpt>
      <trkpt lat="47.47214" lon="6.66113">
        <ele>413</ele>
        <time>2015-02-19T14:44:24Z</time>
      </trkpt>
      <trkpt lat="47.47231" lon="6.66126">
        <ele>412</ele>
        <time>2015-02-19T14:44:41Z</time>
      </trkpt>
      <trkpt lat="47.47266" lon="6.66144">
        <ele>413</ele>
        <time>2015-02-19T14:45:18Z</time>
      </trkpt>
      <trkpt lat="47.47292" lon="6.66154">
        <ele>415</ele>
        <time>2015-02-19T14:45:50Z</time>
      </trkpt>
      <trkpt lat="47.47321" lon="6.66158">
        <ele>417</ele>
        <time>2015-02-19T14:46:24Z</time>
      </trkpt>
      <trkpt lat="47.47341" lon="6.66166">
        <ele>420</ele>
        <time>2015-02-19T14:47:05Z</time>
      </trkpt>
      <trkpt lat="47.47369" lon="6.66172">
        <ele>422</ele>
        <time>2015-02-19T14:47:25Z</time>
      </trkpt>
      <trkpt lat="47.47396" lon="6.66168">
        <ele>427</ele>
        <time>2015-02-19T14:48:04Z</time>
      </trkpt>
      <trkpt lat="47.4743" lon="6.66147">
        <ele>433</ele>
        <time>2015-02-19T14:48:41Z</time>
      </trkpt>
      <trkpt lat="47.47456" lon="6.66133">
        <ele>438</ele>
        <time>2015-02-19T14:49:15Z</time>
      </trkpt>
      <trkpt lat="47.47465" lon="6.66129">
        <ele>439</ele>
        <time>2015-02-19T14:49:21Z</time>
      </trkpt>
      <trkpt lat="47.47493" lon="6.6612">
        <ele>444</ele>
        <time>2015-02-19T14:49:57Z</time>
      </trkpt>
      <trkpt lat="47.47503" lon="6.6612">
        <ele>445</ele>
        <time>2015-02-19T14:50:09Z</time>
      </trkpt>
      <trkpt lat="47.47529" lon="6.66108">
        <ele>448</ele>
        <time>2015-02-19T14:50:42Z</time>
      </trkpt>
      <trkpt lat="47.47547" lon="6.66103">
        <ele>451</ele>
        <time>2015-02-19T14:51:08Z</time>
      </trkpt>
      <trkpt lat="47.47551" lon="6.66099">
        <ele>451</ele>
        <time>2015-02-19T14:51:24Z</time>
      </trkpt>
      <trkpt lat="47.47571" lon="6.66089">
        <ele>450</ele>
        <time>2015-02-19T14:51:55Z</time>
      </trkpt>
      <trkpt lat="47.4758" lon="6.66091">
        <ele>449</ele>
        <time>2015-02-19T14:52:08Z</time>
      </trkpt>
      <trkpt lat="47.47588" lon="6.66085">
        <ele>449</ele>
        <time>2015-02-19T14:52:20Z</time>
      </trkpt>
      <trkpt lat="47.47597" lon="6.66082">
        <ele>448</ele>
        <time>2015-02-19T14:52:31Z</time>
      </trkpt>
      <trkpt lat="47.47612" lon="6.66066">
        <ele>446</ele>
        <time>2015-02-19T14:53:06Z</time>
      </trkpt>
      <trkpt lat="47.47627" lon="6.66049">
        <ele>444</ele>
        <time>2015-02-19T14:53:27Z</time>
      </trkpt>
      <trkpt lat="47.47639" lon="6.66046">
        <ele>444</ele>
        <time>2015-02-19T14:53:38Z</time>
      </trkpt>
      <trkpt lat="47.47646" lon="6.66037">
        <ele>443</ele>
        <time>2015-02-19T14:53:52Z</time>
      </trkpt>
      <trkpt lat="47.47674" lon="6.66029">
        <ele>440</ele>
        <time>2015-02-19T14:54:29Z</time>
      </trkpt>
      <trkpt lat="47.47701" lon="6.66015">
        <ele>438</ele>
        <time>2015-02-19T14:55:03Z</time>
      </trkpt>
      <trkpt lat="47.47728" lon="6.66004">
        <ele>436</ele>
        <time>2015-02-19T14:55:42Z</time>
      </trkpt>
      <trkpt lat="47.47746" lon="6.65995">
        <ele>434</ele>
        <time>2015-02-19T14:56:06Z</time>
      </trkpt>
      <trkpt lat="47.47774" lon="6.65992">
        <ele>428</ele>
        <time>2015-02-19T14:57:03Z</time>
      </trkpt>
      <trkpt lat="47.47793" lon="6.65987">
        <ele>428</ele>
        <time>2015-02-19T14:57:29Z</time>
      </trkpt>
      <trkpt lat="47.47821" lon="6.65994">
        <ele>429</ele>
        <time>2015-02-19T14:58:06Z</time>
      </trkpt>
      <trkpt lat="47.47821" lon="6.66002">
        <ele>430</ele>
        <time>2015-02-19T14:58:56Z</time>
      </trkpt>
      <trkpt lat="47.47831" lon="6.66007">
        <ele>430</ele>
        <time>2015-02-19T14:59:08Z</time>
      </trkpt>
      <trkpt lat="47.47839" lon="6.66018">
        <ele>431</ele>
        <time>2015-02-19T14:59:33Z</time>
      </trkpt>
      <trkpt lat="47.47842" lon="6.66029">
        <ele>432</ele>
        <time>2015-02-19T15:00:22Z</time>
      </trkpt>
      <trkpt lat="47.47844" lon="6.66043">
        <ele>432</ele>
        <time>2015-02-19T15:00:32Z</time>
      </trkpt>
      <trkpt lat="47.47841" lon="6.66057">
        <ele>432</ele>
        <time>2015-02-19T15:00:43Z</time>
      </trkpt>
      <trkpt lat="47.47844" lon="6.6607">
        <ele>432</ele>
        <time>2015-02-19T15:00:51Z</time>
      </trkpt>
      <trkpt lat="47.47838" lon="6.66084">
        <ele>433</ele>
        <time>2015-02-19T15:01:07Z</time>
      </trkpt>
      <trkpt lat="47.47831" lon="6.66095">
        <ele>433</ele>
        <time>2015-02-19T15:01:14Z</time>
      </trkpt>
      <trkpt lat="47.47826" lon="6.66121">
        <ele>434</ele>
        <time>2015-02-19T15:01:30Z</time>
      </trkpt>
      <trkpt lat="47.47831" lon="6.66134">
        <ele>434</ele>
        <time>2015-02-19T15:01:40Z</time>
      </trkpt>
      <trkpt lat="47.47829" lon="6.66145">
        <ele>435</ele>
        <time>2015-02-19T15:01:57Z</time>
      </trkpt>
      <trkpt lat="47.47837" lon="6.66171">
        <ele>436</ele>
        <time>2015-02-19T15:02:18Z</time>
      </trkpt>
      <trkpt lat="47.47833" lon="6.66227">
        <ele>437</ele>
        <time>2015-02-19T15:02:55Z</time>
      </trkpt>
      <trkpt lat="47.47837" lon="6.66255">
        <ele>437</ele>
        <time>2015-02-19T15:03:14Z</time>
      </trkpt>
      <trkpt lat="47.47843" lon="6.66266">
        <ele>438</ele>
        <time>2015-02-19T15:03:24Z</time>
      </trkpt>
      <trkpt lat="47.47844" lon="6.66294">
        <ele>438</ele>
        <time>2015-02-19T15:03:44Z</time>
      </trkpt>
      <trkpt lat="47.47843" lon="6.66308">
        <ele>438</ele>
        <time>2015-02-19T15:03:51Z</time>
      </trkpt>
      <trkpt lat="47.47845" lon="6.66321">
        <ele>438</ele>
        <time>2015-02-19T15:04:00Z</time>
      </trkpt>
      <trkpt lat="47.47838" lon="6.66349">
        <ele>439</ele>
        <time>2015-02-19T15:04:19Z</time>
      </trkpt>
      <trkpt lat="47.47824" lon="6.66403">
        <ele>439</ele>
        <time>2015-02-19T15:04:57Z</time>
      </trkpt>
      <trkpt lat="47.47806" lon="6.66435">
        <ele>438</ele>
        <time>2015-02-19T15:05:26Z</time>
      </trkpt>
      <trkpt lat="47.47798" lon="6.66442">
        <ele>437</ele>
        <time>2015-02-19T15:05:37Z</time>
      </trkpt>
      <trkpt lat="47.47774" lon="6.66485">
        <ele>435</ele>
        <time>2015-02-19T15:06:11Z</time>
      </trkpt>
      <trkpt lat="47.47746" lon="6.66525">
        <ele>434</ele>
        <time>2015-02-19T15:06:51Z</time>
      </trkpt>
      <trkpt lat="47.47722" lon="6.66547">
        <ele>433</ele>
        <time>2015-02-19T15:07:23Z</time>
      </trkpt>
      <trkpt lat="47.47684" lon="6.66558">
        <ele>433</ele>
        <time>2015-02-19T15:07:58Z</time>
      </trkpt>
      <trkpt lat="47.47666" lon="6.66558">
        <ele>434</ele>
        <time>2015-02-19T15:08:16Z</time>
      </trkpt>
      <trkpt lat="47.47641" lon="6.66575">
        <ele>435</ele>
        <time>2015-02-19T15:08:38Z</time>
      </trkpt>
      <trkpt lat="47.47633" lon="6.66584">
        <ele>436</ele>
        <time>2015-02-19T15:09:04Z</time>
      </trkpt>
      <trkpt lat="47.47634" lon="6.666">
        <ele>436</ele>
        <time>2015-02-19T15:09:13Z</time>
      </trkpt>
      <trkpt lat="47.47629" lon="6.66628">
        <ele>435</ele>
        <time>2015-02-19T15:09:40Z</time>
      </trkpt>
      <trkpt lat="47.47632" lon="6.66643">
        <ele>435</ele>
        <time>2015-02-19T15:09:48Z</time>
      </trkpt>
      <trkpt lat="47.47627" lon="6.66654">
        <ele>435</ele>
        <time>2015-02-19T15:09:55Z</time>
      </trkpt>
      <trkpt lat="47.4762" lon="6.66665">
        <ele>434</ele>
        <time>2015-02-19T15:10:02Z</time>
      </trkpt>
      <trkpt lat="47.47617" lon="6.66678">
        <ele>434</ele>
        <time>2015-02-19T15:10:15Z</time>
      </trkpt>
      <trkpt lat="47.4761" lon="6.66712">
        <ele>433</ele>
        <time>2015-02-19T15:10:49Z</time>
      </trkpt>
      <trkpt lat="47.47606" lon="6.66725">
        <ele>433</ele>
        <time>2015-02-19T15:10:58Z</time>
      </trkpt>
      <trkpt lat="47.47586" lon="6.66756">
        <ele>432</ele>
        <time>2015-02-19T15:11:23Z</time>
      </trkpt>
      <trkpt lat="47.47587" lon="6.66769">
        <ele>432</ele>
        <time>2015-02-19T15:11:40Z</time>
      </trkpt>
      <trkpt lat="47.47583" lon="6.66782">
        <ele>432</ele>
        <time>2015-02-19T15:11:51Z</time>
      </trkpt>
      <trkpt lat="47.47555" lon="6.66819">
        <ele>431</ele>
        <time>2015-02-19T15:12:23Z</time>
      </trkpt>
      <trkpt lat="47.47546" lon="6.66829">
        <ele>431</ele>
        <time>2015-02-19T15:12:29Z</time>
      </trkpt>
      <trkpt lat="47.47518" lon="6.66833">
        <ele>430</ele>
        <time>2015-02-19T15:13:00Z</time>
      </trkpt>
      <trkpt lat="47.475" lon="6.66832">
        <ele>430</ele>
        <time>2015-02-19T15:13:17Z</time>
      </trkpt>
      <trkpt lat="47.47481" lon="6.66836">
        <ele>431</ele>
        <time>2015-02-19T15:13:42Z</time>
      </trkpt>
      <trkpt lat="47.47472" lon="6.66831">
        <ele>431</ele>
        <time>2015-02-19T15:13:51Z</time>
      </trkpt>
      <trkpt lat="47.47462" lon="6.66832">
        <ele>432</ele>
        <time>2015-02-19T15:13:58Z</time>
      </trkpt>
      <trkpt lat="47.47453" lon="6.66828">
        <ele>432</ele>
        <time>2015-02-19T15:14:10Z</time>
      </trkpt>
      <trkpt lat="47.47443" lon="6.66829">
        <ele>432</ele>
        <time>2015-02-19T15:14:18Z</time>
      </trkpt>
      <trkpt lat="47.47416" lon="6.6682">
        <ele>432</ele>
        <time>2015-02-19T15:14:49Z</time>
      </trkpt>
      <trkpt lat="47.47407" lon="6.66818">
        <ele>432</ele>
        <time>2015-02-19T15:14:58Z</time>
      </trkpt>
      <trkpt lat="47.47399" lon="6.6681">
        <ele>432</ele>
        <time>2015-02-19T15:15:05Z</time>
      </trkpt>
      <trkpt lat="47.4737" lon="6.66812">
        <ele>432</ele>
        <time>2015-02-19T15:15:37Z</time>
      </trkpt>
      <trkpt lat="47.47361" lon="6.66807">
        <ele>433</ele>
        <time>2015-02-19T15:15:48Z</time>
      </trkpt>
      <trkpt lat="47.47335" lon="6.66821">
        <ele>434</ele>
        <time>2015-02-19T15:16:14Z</time>
      </trkpt>
      <trkpt lat="47.47325" lon="6.6683">
        <ele>434</ele>
        <time>2015-02-19T15:16:21Z</time>
      </trkpt>
      <trkpt lat="47.47288" lon="6.66842">
        <ele>436</ele>
        <time>2015-02-19T15:16:58Z</time>
      </trkpt>
      <trkpt lat="47.47252" lon="6.66858">
        <ele>437</ele>
        <time>2015-02-19T15:17:35Z</time>
      </trkpt>
      <trkpt lat="47.47214" lon="6.66876">
        <ele>438</ele>
        <time>2015-02-19T15:18:08Z</time>
      </trkpt>
      <trkpt lat="47.47167" lon="6.66884">
        <ele>439</ele>
        <time>2015-02-19T15:18:45Z</time>
      </trkpt>
      <trkpt lat="47.47157" lon="6.66882">
        <ele>439</ele>
        <time>2015-02-19T15:18:55Z</time>
      </trkpt>
      <trkpt lat="47.47117" lon="6.66895">
        <ele>439</ele>
        <time>2015-02-19T15:19:26Z</time>
      </trkpt>
      <trkpt lat="47.47082" lon="6.66876">
        <ele>439</ele>
        <time>2015-02-19T15:19:58Z</time>
      </trkpt>
      <trkpt lat="47.47065" lon="6.66864">
        <ele>439</ele>
        <time>2015-02-19T15:20:17Z</time>
      </trkpt>
      <trkpt lat="47.4703" lon="6.66861">
        <ele>437</ele>
        <time>2015-02-19T15:21:08Z</time>
      </trkpt>
      <trkpt lat="47.46983" lon="6.66874">
        <ele>434</ele>
        <time>2015-02-19T15:21:44Z</time>
      </trkpt>
      <trkpt lat="47.46955" lon="6.66874">
        <ele>430</ele>
        <time>2015-02-19T15:22:16Z</time>
      </trkpt>
      <trkpt lat="47.46927" lon="6.66883">
        <ele>426</ele>
        <time>2015-02-19T15:22:39Z</time>
      </trkpt>
      <trkpt lat="47.46919" lon="6.66876">
        <ele>425</ele>
        <time>2015-02-19T15:22:46Z</time>
      </trkpt>
      <trkpt lat="47.4691" lon="6.66894">
        <ele>424</ele>
        <time>2015-02-19T15:22:50Z</time>
      </trkpt>
      <trkpt lat="47.46903" lon="6.66904">
        <ele>424</ele>
        <time>2015-02-19T15:22:53Z</time>
      </trkpt>
      <trkpt lat="47.46896" lon="6.66895">
        <ele>419</ele>
        <time>2015-02-19T15:23:10Z</time>
      </trkpt>
      <trkpt lat="47.46887" lon="6.66891">
        <ele>413</ele>
        <time>2015-02-19T15:23:21Z</time>
      </trkpt>
      <trkpt lat="47.46877" lon="6.66894">
        <ele>407</ele>
        <time>2015-02-19T15:23:32Z</time>
      </trkpt>
      <trkpt lat="47.46869" lon="6.66902">
        <ele>400</ele>
        <time>2015-02-19T15:23:42Z</time>
      </trkpt>
      <trkpt lat="47.46868" lon="6.66915">
        <ele>397</ele>
        <time>2015-02-19T15:23:48Z</time>
      </trkpt>
      <trkpt lat="47.46888" lon="6.6696">
        <ele>383</ele>
        <time>2015-02-19T15:24:24Z</time>
      </trkpt>
      <trkpt lat="47.46901" lon="6.67017">
        <ele>372</ele>
        <time>2015-02-19T15:25:14Z</time>
      </trkpt>
      <trkpt lat="47.46907" lon="6.67059">
        <ele>366</ele>
        <time>2015-02-19T15:25:45Z</time>
      </trkpt>
      <trkpt lat="47.46909" lon="6.67102">
        <ele>363</ele>
        <time>2015-02-19T15:26:06Z</time>
      </trkpt>
      <trkpt lat="47.4691" lon="6.67116">
        <ele>363</ele>
        <time>2015-02-19T15:26:15Z</time>
      </trkpt>
      <trkpt lat="47.46916" lon="6.67172">
        <ele>365</ele>
        <time>2015-02-19T15:26:50Z</time>
      </trkpt>
      <trkpt lat="47.46923" lon="6.67213">
        <ele>366</ele>
        <time>2015-02-19T15:27:18Z</time>
      </trkpt>
      <trkpt lat="47.46928" lon="6.67239">
        <ele>366</ele>
        <time>2015-02-19T15:27:34Z</time>
      </trkpt>
      <trkpt lat="47.46933" lon="6.67279">
        <ele>367</ele>
        <time>2015-02-19T15:28:05Z</time>
      </trkpt>
      <trkpt lat="47.4694" lon="6.67335">
        <ele>369</ele>
        <time>2015-02-19T15:28:40Z</time>
      </trkpt>
      <trkpt lat="47.46952" lon="6.67388">
        <ele>371</ele>
        <time>2015-02-19T15:29:18Z</time>
      </trkpt>
      <trkpt lat="47.46958" lon="6.67442">
        <ele>371</ele>
        <time>2015-02-19T15:29:51Z</time>
      </trkpt>
      <trkpt lat="47.46958" lon="6.67483">
        <ele>372</ele>
        <time>2015-02-19T15:30:20Z</time>
      </trkpt>
      <trkpt lat="47.46975" lon="6.67534">
        <ele>372</ele>
        <time>2015-02-19T15:30:55Z</time>
      </trkpt>
      <trkpt lat="47.46993" lon="6.67567">
        <ele>371</ele>
        <time>2015-02-19T15:31:23Z</time>
      </trkpt>
      <trkpt lat="47.47004" lon="6.67589">
        <ele>369</ele>
        <time>2015-02-19T15:31:41Z</time>
      </trkpt>
      <trkpt lat="47.47011" lon="6.67615">
        <ele>369</ele>
        <time>2015-02-19T15:31:57Z</time>
      </trkpt>
      <trkpt lat="47.47023" lon="6.67664">
        <ele>371</ele>
        <time>2015-02-19T15:32:31Z</time>
      </trkpt>
      <trkpt lat="47.47038" lon="6.67716">
        <ele>374</ele>
        <time>2015-02-19T15:33:07Z</time>
      </trkpt>
      <trkpt lat="47.47043" lon="6.67744">
        <ele>376</ele>
        <time>2015-02-19T15:33:26Z</time>
      </trkpt>
      <trkpt lat="47.47049" lon="6.67754">
        <ele>377</ele>
        <time>2015-02-19T15:33:38Z</time>
      </trkpt>
      <trkpt lat="47.47057" lon="6.67763">
        <ele>377</ele>
        <time>2015-02-19T15:33:46Z</time>
      </trkpt>
      <trkpt lat="47.47057" lon="6.67776">
        <ele>377</ele>
        <time>2015-02-19T15:33:53Z</time>
      </trkpt>
      <trkpt lat="47.47061" lon="6.67818">
        <ele>375</ele>
        <time>2015-02-19T15:34:22Z</time>
      </trkpt>
      <trkpt lat="47.47073" lon="6.6787">
        <ele>369</ele>
        <time>2015-02-19T15:34:59Z</time>
      </trkpt>
      <trkpt lat="47.47078" lon="6.67926">
        <ele>365</ele>
        <time>2015-02-19T15:35:35Z</time>
      </trkpt>
      <trkpt lat="47.47088" lon="6.67979">
        <ele>363</ele>
        <time>2015-02-19T15:36:07Z</time>
      </trkpt>
      <trkpt lat="47.47093" lon="6.68018">
        <ele>361</ele>
        <time>2015-02-19T15:36:38Z</time>
      </trkpt>
      <trkpt lat="47.47105" lon="6.68073">
        <ele>359</ele>
        <time>2015-02-19T15:37:10Z</time>
      </trkpt>
      <trkpt lat="47.47116" lon="6.68126">
        <ele>357</ele>
        <time>2015-02-19T15:37:46Z</time>
      </trkpt>
      <trkpt lat="47.47116" lon="6.68181">
        <ele>355</ele>
        <time>2015-02-19T15:38:25Z</time>
      </trkpt>
      <trkpt lat="47.47115" lon="6.68236">
        <ele>354</ele>
        <time>2015-02-19T15:38:57Z</time>
      </trkpt>
      <trkpt lat="47.47114" lon="6.68277">
        <ele>352</ele>
        <time>2015-02-19T15:39:24Z</time>
      </trkpt>
      <trkpt lat="47.47121" lon="6.68333">
        <ele>352</ele>
        <time>2015-02-19T15:40:00Z</time>
      </trkpt>
      <trkpt lat="47.47126" lon="6.6839">
        <ele>352</ele>
        <time>2015-02-19T15:40:32Z</time>
      </trkpt>
      <trkpt lat="47.47127" lon="6.68443">
        <ele>352</ele>
        <time>2015-02-19T15:41:08Z</time>
      </trkpt>
      <trkpt lat="47.47133" lon="6.68497">
        <ele>352</ele>
        <time>2015-02-19T15:41:42Z</time>
      </trkpt>
      <trkpt lat="47.47129" lon="6.68549">
        <ele>350</ele>
        <time>2015-02-19T15:42:17Z</time>
      </trkpt>
      <trkpt lat="47.47124" lon="6.68561">
        <ele>350</ele>
        <time>2015-02-19T15:42:27Z</time>
      </trkpt>
      <trkpt lat="47.47106" lon="6.68569">
        <ele>349</ele>
        <time>2015-02-19T15:42:47Z</time>
      </trkpt>
      <trkpt lat="47.47094" lon="6.68566">
        <ele>348</ele>
        <time>2015-02-19T15:43:19Z</time>
      </trkpt>
      <trkpt lat="47.47087" lon="6.68556">
        <ele>347</ele>
        <time>2015-02-19T15:43:34Z</time>
      </trkpt>
      <trkpt lat="47.47082" lon="6.68544">
        <ele>347</ele>
        <time>2015-02-19T15:43:44Z</time>
      </trkpt>
    </trkseg>
  </trk>
</gpx>